sensor_id;sensor_type;location;lat;lon;timestamp;pressure;altitude;pressure_sealevel;temperature;humidity
85984;BME280;76557;45.488;12.254;2024-02-23T00:02:07;100450.03;;;8.92;95.40
85984;BME280;76557;45.488;12.254;2024-02-23T00:06:02;100441.41;;;8.95;95.33
85984;BME280;76557;45.488;12.254;2024-02-23T00:09:58;100453.59;;;8.99;95.41
85984;BME280;76557;45.488;12.254;2024-02-23T00:13:53;100443.28;;;9.01;94.91
85984;BME280;76557;45.488;12.254;2024-02-23T00:17:49;100439.31;;;8.97;95.27
85984;BME280;76557;45.488;12.254;2024-02-23T00:21:44;100426.22;;;8.93;94.99
85984;BME280;76557;45.488;12.254;2024-02-23T00:25:44;100419.69;;;8.87;95.32
85984;BME280;76557;45.488;12.254;2024-02-23T00:29:40;100430.44;;;8.89;95.56
85984;BME280;76557;45.488;12.254;2024-02-23T00:33:35;100432.16;;;8.83;95.65
85984;BME280;76557;45.488;12.254;2024-02-23T00:37:32;100424.97;;;8.82;95.69
85984;BME280;76557;45.488;12.254;2024-02-23T00:41:30;100422.44;;;8.81;95.73
85984;BME280;76557;45.488;12.254;2024-02-23T00:45:26;100414.66;;;8.84;95.43
85984;BME280;76557;45.488;12.254;2024-02-23T00:49:21;100407.69;;;8.82;95.57
85984;BME280;76557;45.488;12.254;2024-02-23T00:53:17;100412.75;;;8.85;95.49
85984;BME280;76557;45.488;12.254;2024-02-23T00:57:12;100407.91;;;8.80;95.58
85984;BME280;76557;45.488;12.254;2024-02-23T01:01:08;100405.59;;;8.77;95.64
85984;BME280;76557;45.488;12.254;2024-02-23T01:05:04;100390.00;;;8.77;95.75
85984;BME280;76557;45.488;12.254;2024-02-23T01:08:59;100395.91;;;8.81;95.73
85984;BME280;76557;45.488;12.254;2024-02-23T01:12:55;100375.69;;;8.82;95.81
85984;BME280;76557;45.488;12.254;2024-02-23T01:16:50;100368.50;;;8.81;95.37
85984;BME280;76557;45.488;12.254;2024-02-23T01:20:45;100365.13;;;8.86;95.25
85984;BME280;76557;45.488;12.254;2024-02-23T01:24:41;100352.06;;;8.81;95.32
85984;BME280;76557;45.488;12.254;2024-02-23T01:28:36;100337.75;;;8.79;95.86
85984;BME280;76557;45.488;12.254;2024-02-23T01:32:31;100332.72;;;8.76;95.59
85984;BME280;76557;45.488;12.254;2024-02-23T01:36:27;100315.84;;;8.79;95.68
85984;BME280;76557;45.488;12.254;2024-02-23T01:40:22;100312.03;;;8.80;95.65
85984;BME280;76557;45.488;12.254;2024-02-23T01:44:17;100308.44;;;8.86;95.31
85984;BME280;76557;45.488;12.254;2024-02-23T01:48:13;100290.78;;;8.82;95.96
85984;BME280;76557;45.488;12.254;2024-02-23T01:52:08;100292.00;;;8.86;95.39
85984;BME280;76557;45.488;12.254;2024-02-23T01:56:04;100279.81;;;8.82;95.62
85984;BME280;76557;45.488;12.254;2024-02-23T02:00:01;100259.38;;;8.78;95.81
85984;BME280;76557;45.488;12.254;2024-02-23T02:03:58;100262.31;;;8.83;95.85
85984;BME280;76557;45.488;12.254;2024-02-23T02:07:55;100258.53;;;8.84;96.22
85984;BME280;76557;45.488;12.254;2024-02-23T02:11:53;100254.28;;;8.88;95.45
85984;BME280;76557;45.488;12.254;2024-02-23T02:15:49;100250.50;;;8.89;95.55
85984;BME280;76557;45.488;12.254;2024-02-23T02:19:48;100247.13;;;8.87;95.33
85984;BME280;76557;45.488;12.254;2024-02-23T02:23:43;100233.00;;;8.90;95.20
85984;BME280;76557;45.488;12.254;2024-02-23T02:27:38;100227.28;;;8.92;95.16
85984;BME280;76557;45.488;12.254;2024-02-23T02:31:34;100216.56;;;8.90;95.54
85984;BME280;76557;45.488;12.254;2024-02-23T02:35:32;100210.47;;;8.88;95.12
85984;BME280;76557;45.488;12.254;2024-02-23T02:39:27;100209.19;;;8.91;95.31
85984;BME280;76557;45.488;12.254;2024-02-23T02:43:23;100209.81;;;8.93;95.34
85984;BME280;76557;45.488;12.254;2024-02-23T02:47:18;100202.44;;;8.93;95.03
85984;BME280;76557;45.488;12.254;2024-02-23T02:51:13;100188.72;;;8.93;95.04
85984;BME280;76557;45.488;12.254;2024-02-23T02:55:09;100179.66;;;8.93;95.07
85984;BME280;76557;45.488;12.254;2024-02-23T02:59:04;100180.94;;;8.97;94.69
85984;BME280;76557;45.488;12.254;2024-02-23T03:02:59;100167.00;;;8.98;95.25
85984;BME280;76557;45.488;12.254;2024-02-23T03:06:55;100169.31;;;9.01;94.71
85984;BME280;76557;45.488;12.254;2024-02-23T03:10:50;100162.72;;;9.09;94.53
85984;BME280;76557;45.488;12.254;2024-02-23T03:14:46;100148.38;;;9.13;94.39
85984;BME280;76557;45.488;12.254;2024-02-23T03:18:42;100138.09;;;9.34;92.85
85984;BME280;76557;45.488;12.254;2024-02-23T03:22:37;100150.53;;;9.61;91.17
85984;BME280;76557;45.488;12.254;2024-02-23T03:26:33;100145.84;;;9.68;91.17
85984;BME280;76557;45.488;12.254;2024-02-23T03:30:28;100132.94;;;9.93;88.99
85984;BME280;76557;45.488;12.254;2024-02-23T03:34:24;100129.63;;;10.46;85.46
85984;BME280;76557;45.488;12.254;2024-02-23T03:38:19;100108.09;;;10.91;81.28
85984;BME280;76557;45.488;12.254;2024-02-23T03:42:16;100119.53;;;11.18;79.31
85984;BME280;76557;45.488;12.254;2024-02-23T03:46:11;100115.84;;;11.24;78.91
85984;BME280;76557;45.488;12.254;2024-02-23T03:50:07;100102.31;;;11.11;79.97
85984;BME280;76557;45.488;12.254;2024-02-23T03:54:03;100097.00;;;11.28;78.23
85984;BME280;76557;45.488;12.254;2024-02-23T03:57:58;100092.84;;;11.48;77.08
85984;BME280;76557;45.488;12.254;2024-02-23T04:01:54;100087.34;;;11.48;75.91
85984;BME280;76557;45.488;12.254;2024-02-23T04:05:49;100080.16;;;11.47;75.94
85984;BME280;76557;45.488;12.254;2024-02-23T04:09:45;100069.16;;;11.47;76.27
85984;BME280;76557;45.488;12.254;2024-02-23T04:13:40;100064.63;;;11.41;76.75
85984;BME280;76557;45.488;12.254;2024-02-23T04:17:36;100066.53;;;11.52;76.13
85984;BME280;76557;45.488;12.254;2024-02-23T04:21:31;100053.03;;;11.63;74.83
85984;BME280;76557;45.488;12.254;2024-02-23T04:25:26;100059.59;;;11.62;74.84
85984;BME280;76557;45.488;12.254;2024-02-23T04:29:22;100050.63;;;11.54;75.11
85984;BME280;76557;45.488;12.254;2024-02-23T04:33:17;100048.09;;;11.65;73.99
85984;BME280;76557;45.488;12.254;2024-02-23T04:37:12;100042.59;;;11.65;74.67
85984;BME280;76557;45.488;12.254;2024-02-23T04:41:08;100022.63;;;11.69;73.45
85984;BME280;76557;45.488;12.254;2024-02-23T04:45:03;100031.88;;;11.75;73.24
85984;BME280;76557;45.488;12.254;2024-02-23T04:48:59;100014.63;;;11.68;73.58
85984;BME280;76557;45.488;12.254;2024-02-23T04:52:54;100009.13;;;11.68;73.22
85984;BME280;76557;45.488;12.254;2024-02-23T04:56:50;100006.97;;;11.81;72.94
85984;BME280;76557;45.488;12.254;2024-02-23T05:00:45;100004.09;;;11.88;71.32
85984;BME280;76557;45.488;12.254;2024-02-23T05:04:41;100005.78;;;11.89;70.94
85984;BME280;76557;45.488;12.254;2024-02-23T05:08:36;99999.28;;;11.95;70.81
85984;BME280;76557;45.488;12.254;2024-02-23T05:12:31;100001.69;;;12.03;69.17
85984;BME280;76557;45.488;12.254;2024-02-23T05:16:27;99990.16;;;12.06;68.87
85984;BME280;76557;45.488;12.254;2024-02-23T05:20:22;99994.69;;;12.12;68.67
85984;BME280;76557;45.488;12.254;2024-02-23T05:24:17;99978.78;;;12.14;68.56
85984;BME280;76557;45.488;12.254;2024-02-23T05:28:13;99981.38;;;12.21;67.76
85984;BME280;76557;45.488;12.254;2024-02-23T05:32:08;99988.44;;;12.28;66.45
85984;BME280;76557;45.488;12.254;2024-02-23T05:36:04;99994.41;;;12.25;67.14
85984;BME280;76557;45.488;12.254;2024-02-23T05:40:00;99973.59;;;12.29;66.58
85984;BME280;76557;45.488;12.254;2024-02-23T05:43:57;99966.88;;;12.25;67.01
85984;BME280;76557;45.488;12.254;2024-02-23T05:47:52;99968.06;;;12.29;66.22
85984;BME280;76557;45.488;12.254;2024-02-23T05:51:48;99959.38;;;12.38;65.32
85984;BME280;76557;45.488;12.254;2024-02-23T05:55:43;99946.91;;;12.47;64.70
85984;BME280;76557;45.488;12.254;2024-02-23T05:59:38;99948.56;;;12.48;65.06
85984;BME280;76557;45.488;12.254;2024-02-23T06:03:34;99945.06;;;12.36;65.74
85984;BME280;76557;45.488;12.254;2024-02-23T06:07:29;99949.28;;;12.26;66.90
85984;BME280;76557;45.488;12.254;2024-02-23T06:11:24;99950.16;;;12.15;68.18
85984;BME280;76557;45.488;12.254;2024-02-23T06:15:20;99955.44;;;12.05;69.25
85984;BME280;76557;45.488;12.254;2024-02-23T06:19:15;99949.25;;;11.98;69.82
85984;BME280;76557;45.488;12.254;2024-02-23T06:23:10;99927.88;;;11.88;71.92
85984;BME280;76557;45.488;12.254;2024-02-23T06:27:06;99924.19;;;11.83;74.30
85984;BME280;76557;45.488;12.254;2024-02-23T06:31:01;99919.25;;;11.73;76.02
85984;BME280;76557;45.488;12.254;2024-02-23T06:34:58;99903.81;;;11.84;75.25
85984;BME280;76557;45.488;12.254;2024-02-23T06:38:54;99899.16;;;11.84;75.15
85984;BME280;76557;45.488;12.254;2024-02-23T06:42:50;99908.84;;;11.87;74.94
85984;BME280;76557;45.488;12.254;2024-02-23T06:46:45;99883.47;;;11.85;75.35
85984;BME280;76557;45.488;12.254;2024-02-23T06:50:40;99883.97;;;11.82;75.51
85984;BME280;76557;45.488;12.254;2024-02-23T06:54:36;99875.22;;;11.85;74.69
85984;BME280;76557;45.488;12.254;2024-02-23T06:58:31;99882.50;;;11.91;74.05
85984;BME280;76557;45.488;12.254;2024-02-23T07:02:27;99874.00;;;11.92;74.40
85984;BME280;76557;45.488;12.254;2024-02-23T07:06:22;99880.69;;;11.97;73.47
85984;BME280;76557;45.488;12.254;2024-02-23T07:10:19;99864.19;;;11.97;73.04
85984;BME280;76557;45.488;12.254;2024-02-23T07:14:15;99872.69;;;11.95;72.53
85984;BME280;76557;45.488;12.254;2024-02-23T07:18:12;99865.00;;;11.97;72.15
85984;BME280;76557;45.488;12.254;2024-02-23T07:22:07;99852.81;;;11.93;72.28
85984;BME280;76557;45.488;12.254;2024-02-23T07:26:02;99848.16;;;11.93;72.52
85984;BME280;76557;45.488;12.254;2024-02-23T07:29:58;99857.25;;;11.94;72.44
85984;BME280;76557;45.488;12.254;2024-02-23T07:33:53;99840.66;;;11.89;72.79
85984;BME280;76557;45.488;12.254;2024-02-23T07:37:49;99839.81;;;11.88;71.81
85984;BME280;76557;45.488;12.254;2024-02-23T07:41:44;99830.72;;;11.88;71.30
85984;BME280;76557;45.488;12.254;2024-02-23T07:45:40;99834.03;;;11.90;70.53
85984;BME280;76557;45.488;12.254;2024-02-23T07:49:35;99837.97;;;11.94;69.91
85984;BME280;76557;45.488;12.254;2024-02-23T07:53:31;99833.63;;;11.98;69.17
85984;BME280;76557;45.488;12.254;2024-02-23T07:57:26;99833.47;;;12.05;68.36
85984;BME280;76557;45.488;12.254;2024-02-23T08:01:22;99813.66;;;12.03;68.96
85984;BME280;76557;45.488;12.254;2024-02-23T08:05:17;99819.47;;;12.06;68.73
85984;BME280;76557;45.488;12.254;2024-02-23T08:09:13;99813.13;;;12.06;68.83
85984;BME280;76557;45.488;12.254;2024-02-23T08:13:08;99813.88;;;12.01;68.96
85984;BME280;76557;45.488;12.254;2024-02-23T08:17:05;99820.16;;;12.13;68.27
85984;BME280;76557;45.488;12.254;2024-02-23T08:21:01;99805.06;;;12.16;68.34
85984;BME280;76557;45.488;12.254;2024-02-23T08:24:58;99819.53;;;12.23;67.99
85984;BME280;76557;45.488;12.254;2024-02-23T08:28:53;99810.06;;;12.19;68.00
85984;BME280;76557;45.488;12.254;2024-02-23T08:32:48;99820.16;;;12.13;69.01
85984;BME280;76557;45.488;12.254;2024-02-23T08:36:44;99817.31;;;12.08;69.54
85984;BME280;76557;45.488;12.254;2024-02-23T08:40:39;99800.13;;;12.01;69.72
85984;BME280;76557;45.488;12.254;2024-02-23T08:44:35;99811.63;;;11.98;70.17
85984;BME280;76557;45.488;12.254;2024-02-23T08:48:31;99832.34;;;12.17;70.27
85984;BME280;76557;45.488;12.254;2024-02-23T08:52:27;99807.66;;;12.22;69.29
85984;BME280;76557;45.488;12.254;2024-02-23T08:56:22;99802.03;;;12.17;69.59
85984;BME280;76557;45.488;12.254;2024-02-23T09:00:18;99802.03;;;12.17;69.91
85984;BME280;76557;45.488;12.254;2024-02-23T09:04:13;99805.63;;;12.18;69.54
85984;BME280;76557;45.488;12.254;2024-02-23T09:08:10;99798.72;;;12.15;70.24
85984;BME280;76557;45.488;12.254;2024-02-23T09:12:06;99784.97;;;12.15;69.32
85984;BME280;76557;45.488;12.254;2024-02-23T09:16:02;99787.63;;;12.27;68.30
85984;BME280;76557;45.488;12.254;2024-02-23T09:19:58;99790.63;;;12.25;68.71
85984;BME280;76557;45.488;12.254;2024-02-23T09:23:53;99781.97;;;12.33;67.39
85984;BME280;76557;45.488;12.254;2024-02-23T09:27:49;99786.31;;;12.29;67.84
85984;BME280;76557;45.488;12.254;2024-02-23T09:31:44;99775.78;;;12.26;68.72
85984;BME280;76557;45.488;12.254;2024-02-23T09:35:39;99762.59;;;12.28;68.42
85984;BME280;76557;45.488;12.254;2024-02-23T09:39:35;99759.19;;;12.21;68.55
85984;BME280;76557;45.488;12.254;2024-02-23T09:43:30;99766.09;;;12.24;69.40
85984;BME280;76557;45.488;12.254;2024-02-23T09:47:27;99759.59;;;12.13;70.02
85984;BME280;76557;45.488;12.254;2024-02-23T09:51:26;99794.38;;;12.19;70.16
85984;BME280;76557;45.488;12.254;2024-02-23T09:55:22;99767.25;;;12.11;72.04
85984;BME280;76557;45.488;12.254;2024-02-23T09:59:17;99754.66;;;11.82;75.33
85984;BME280;76557;45.488;12.254;2024-02-23T10:03:13;99751.97;;;11.59;77.02
85984;BME280;76557;45.488;12.254;2024-02-23T10:07:09;99754.63;;;11.53;77.25
85984;BME280;76557;45.488;12.254;2024-02-23T10:11:05;99770.06;;;11.54;78.64
85984;BME280;76557;45.488;12.254;2024-02-23T10:15:02;99762.09;;;11.41;79.88
85984;BME280;76557;45.488;12.254;2024-02-23T10:18:59;99761.59;;;11.44;79.50
85984;BME280;76557;45.488;12.254;2024-02-23T10:22:54;99770.13;;;11.43;80.20
85984;BME280;76557;45.488;12.254;2024-02-23T10:26:51;99756.59;;;11.41;79.49
85984;BME280;76557;45.488;12.254;2024-02-23T10:30:48;99755.91;;;11.34;79.77
85984;BME280;76557;45.488;12.254;2024-02-23T10:34:44;99759.94;;;11.43;79.31
85984;BME280;76557;45.488;12.254;2024-02-23T10:38:47;99744.63;;;11.47;76.73
85984;BME280;76557;45.488;12.254;2024-02-23T10:42:47;99736.38;;;11.76;75.18
85984;BME280;76557;45.488;12.254;2024-02-23T10:46:42;99744.03;;;11.90;73.83
85984;BME280;76557;45.488;12.254;2024-02-23T10:50:39;99751.41;;;12.02;72.68
85984;BME280;76557;45.488;12.254;2024-02-23T10:54:36;99722.78;;;11.86;75.11
85984;BME280;76557;45.488;12.254;2024-02-23T10:58:31;99733.31;;;11.61;76.39
85984;BME280;76557;45.488;12.254;2024-02-23T11:02:28;99722.78;;;11.57;76.31
85984;BME280;76557;45.488;12.254;2024-02-23T11:06:29;99725.97;;;11.49;78.21
85984;BME280;76557;45.488;12.254;2024-02-23T11:10:24;99725.84;;;11.44;79.95
85984;BME280;76557;45.488;12.254;2024-02-23T11:14:30;99727.72;;;11.55;78.58
85984;BME280;76557;45.488;12.254;2024-02-23T11:18:27;99731.47;;;11.66;77.54
85984;BME280;76557;45.488;12.254;2024-02-23T11:22:30;99730.28;;;11.74;76.77
85984;BME280;76557;45.488;12.254;2024-02-23T11:26:26;99723.47;;;11.65;78.37
85984;BME280;76557;45.488;12.254;2024-02-23T11:30:22;99723.81;;;11.68;77.45
85984;BME280;76557;45.488;12.254;2024-02-23T11:34:22;99720.03;;;11.57;79.01
85984;BME280;76557;45.488;12.254;2024-02-23T11:38:21;99713.91;;;11.67;77.97
85984;BME280;76557;45.488;12.254;2024-02-23T11:42:17;99721.94;;;11.57;79.44
85984;BME280;76557;45.488;12.254;2024-02-23T11:46:15;99726.75;;;11.33;80.79
85984;BME280;76557;45.488;12.254;2024-02-23T11:50:11;99716.34;;;11.24;81.95
85984;BME280;76557;45.488;12.254;2024-02-23T11:54:06;99725.84;;;11.16;83.25
85984;BME280;76557;45.488;12.254;2024-02-23T11:58:02;99741.53;;;11.04;84.97
85984;BME280;76557;45.488;12.254;2024-02-23T12:01:57;99761.50;;;10.99;85.51
85984;BME280;76557;45.488;12.254;2024-02-23T12:05:53;99772.75;;;10.86;87.93
85984;BME280;76557;45.488;12.254;2024-02-23T12:09:48;99756.91;;;10.77;89.67
85984;BME280;76557;45.488;12.254;2024-02-23T12:13:44;99764.16;;;10.71;89.71
85984;BME280;76557;45.488;12.254;2024-02-23T12:17:49;99759.91;;;10.63;90.03
85984;BME280;76557;45.488;12.254;2024-02-23T12:21:45;99782.56;;;10.59;88.70
85984;BME280;76557;45.488;12.254;2024-02-23T12:25:52;99776.50;;;10.57;89.10
85984;BME280;76557;45.488;12.254;2024-02-23T12:29:52;99791.41;;;10.49;90.93
85984;BME280;76557;45.488;12.254;2024-02-23T12:33:48;99797.50;;;10.40;92.11
85984;BME280;76557;45.488;12.254;2024-02-23T12:37:43;99775.53;;;10.40;92.58
85984;BME280;76557;45.488;12.254;2024-02-23T12:41:40;99768.34;;;10.39;93.27
85984;BME280;76557;45.488;12.254;2024-02-23T12:45:35;99767.50;;;10.38;92.93
85984;BME280;76557;45.488;12.254;2024-02-23T12:49:31;99769.69;;;10.36;93.28
85984;BME280;76557;45.488;12.254;2024-02-23T12:53:42;99759.78;;;10.35;93.35
85984;BME280;76557;45.488;12.254;2024-02-23T12:57:38;99749.59;;;10.24;92.76
85984;BME280;76557;45.488;12.254;2024-02-23T13:01:33;99749.13;;;10.27;92.20
85984;BME280;76557;45.488;12.254;2024-02-23T13:05:32;99759.16;;;10.33;92.43
85984;BME280;76557;45.488;12.254;2024-02-23T13:09:27;99762.97;;;10.32;92.81
85984;BME280;76557;45.488;12.254;2024-02-23T13:13:23;99769.19;;;10.39;93.15
85984;BME280;76557;45.488;12.254;2024-02-23T13:17:18;99759.88;;;10.40;93.46
85984;BME280;76557;45.488;12.254;2024-02-23T13:21:14;99747.09;;;10.46;94.11
85984;BME280;76557;45.488;12.254;2024-02-23T13:25:10;99755.13;;;10.47;93.89
85984;BME280;76557;45.488;12.254;2024-02-23T13:29:06;99732.69;;;10.50;94.09
85984;BME280;76557;45.488;12.254;2024-02-23T13:33:02;99716.88;;;10.57;94.05
85984;BME280;76557;45.488;12.254;2024-02-23T13:36:57;99715.94;;;10.63;94.13
85984;BME280;76557;45.488;12.254;2024-02-23T13:40:52;99714.63;;;10.66;94.42
85984;BME280;76557;45.488;12.254;2024-02-23T13:44:48;99707.81;;;10.68;94.06
85984;BME280;76557;45.488;12.254;2024-02-23T13:48:43;99698.63;;;10.63;94.37
85984;BME280;76557;45.488;12.254;2024-02-23T13:52:38;99710.31;;;10.58;94.28
85984;BME280;76557;45.488;12.254;2024-02-23T13:56:34;99712.22;;;10.58;94.25
85984;BME280;76557;45.488;12.254;2024-02-23T14:00:29;99716.88;;;10.57;94.10
85984;BME280;76557;45.488;12.254;2024-02-23T14:04:25;99722.03;;;10.54;94.76
85984;BME280;76557;45.488;12.254;2024-02-23T14:08:21;99723.22;;;10.46;94.49
85984;BME280;76557;45.488;12.254;2024-02-23T14:12:16;99720.97;;;10.43;94.46
85984;BME280;76557;45.488;12.254;2024-02-23T14:16:12;99722.63;;;10.44;94.83
85984;BME280;76557;45.488;12.254;2024-02-23T14:20:09;99723.22;;;10.46;95.03
85984;BME280;76557;45.488;12.254;2024-02-23T14:24:05;99720.03;;;10.49;94.76
85984;BME280;76557;45.488;12.254;2024-02-23T14:28:00;99720.03;;;10.49;94.52
85984;BME280;76557;45.488;12.254;2024-02-23T14:31:56;99711.28;;;10.52;94.26
85984;BME280;76557;45.488;12.254;2024-02-23T14:35:51;99697.56;;;10.52;94.36
85984;BME280;76557;45.488;12.254;2024-02-23T14:39:46;99692.66;;;10.54;94.02
85984;BME280;76557;45.488;12.254;2024-02-23T14:43:42;99682.28;;;10.56;93.86
85984;BME280;76557;45.488;12.254;2024-02-23T14:47:37;99688.25;;;10.53;92.51
85984;BME280;76557;45.488;12.254;2024-02-23T14:51:33;99681.06;;;10.52;91.29
85984;BME280;76557;45.488;12.254;2024-02-23T14:55:30;99662.34;;;10.49;91.66
85984;BME280;76557;45.488;12.254;2024-02-23T14:59:25;99656.50;;;10.46;90.92
85984;BME280;76557;45.488;12.254;2024-02-23T15:03:21;99655.56;;;10.40;90.78
85984;BME280;76557;45.488;12.254;2024-02-23T15:07:16;99666.78;;;10.39;91.16
85984;BME280;76557;45.488;12.254;2024-02-23T15:11:12;99667.28;;;10.35;90.49
85984;BME280;76557;45.488;12.254;2024-02-23T15:15:08;99662.97;;;10.28;91.13
85984;BME280;76557;45.488;12.254;2024-02-23T15:19:03;99678.94;;;10.31;91.29
85984;BME280;76557;45.488;12.254;2024-02-23T15:22:58;99681.13;;;10.29;90.99
85984;BME280;76557;45.488;12.254;2024-02-23T15:26:54;99690.88;;;10.25;90.79
85984;BME280;76557;45.488;12.254;2024-02-23T15:30:52;99684.22;;;10.21;91.54
85984;BME280;76557;45.488;12.254;2024-02-23T15:34:48;99675.38;;;10.19;91.60
85984;BME280;76557;45.488;12.254;2024-02-23T15:38:43;99683.63;;;10.19;91.05
85984;BME280;76557;45.488;12.254;2024-02-23T15:42:39;99705.00;;;10.17;91.57
85984;BME280;76557;45.488;12.254;2024-02-23T15:46:34;99718.09;;;10.15;91.67
85984;BME280;76557;45.488;12.254;2024-02-23T15:50:29;99717.69;;;10.11;91.87
85984;BME280;76557;45.488;12.254;2024-02-23T15:54:26;99700.41;;;10.11;91.91
85984;BME280;76557;45.488;12.254;2024-02-23T15:58:23;99695.41;;;10.08;91.96
85984;BME280;76557;45.488;12.254;2024-02-23T16:02:18;99708.53;;;10.06;92.73
85984;BME280;76557;45.488;12.254;2024-02-23T16:06:14;99701.84;;;10.02;92.44
85984;BME280;76557;45.488;12.254;2024-02-23T16:10:09;99696.81;;;9.98;92.94
85984;BME280;76557;45.488;12.254;2024-02-23T16:14:07;99690.16;;;9.94;92.53
85984;BME280;76557;45.488;12.254;2024-02-23T16:18:03;99692.28;;;9.92;92.92
85984;BME280;76557;45.488;12.254;2024-02-23T16:21:59;99697.78;;;9.92;92.52
85984;BME280;76557;45.488;12.254;2024-02-23T16:25:55;99706.72;;;9.88;93.09
85984;BME280;76557;45.488;12.254;2024-02-23T16:29:51;99701.69;;;9.85;92.79
85984;BME280;76557;45.488;12.254;2024-02-23T16:33:46;99721.72;;;9.85;93.06
85984;BME280;76557;45.488;12.254;2024-02-23T16:37:42;99711.81;;;9.84;92.80
85984;BME280;76557;45.488;12.254;2024-02-23T16:41:37;99711.81;;;9.84;92.58
85984;BME280;76557;45.488;12.254;2024-02-23T16:45:32;99720.16;;;9.78;92.96
85984;BME280;76557;45.488;12.254;2024-02-23T16:49:28;99730.28;;;9.77;92.71
85984;BME280;76557;45.488;12.254;2024-02-23T16:53:23;99742.38;;;9.76;92.63
85984;BME280;76557;45.488;12.254;2024-02-23T16:57:18;99737.81;;;9.70;92.99
85984;BME280;76557;45.488;12.254;2024-02-23T17:01:14;99718.00;;;9.68;92.82
85984;BME280;76557;45.488;12.254;2024-02-23T17:05:10;99714.66;;;9.66;92.66
85984;BME280;76557;45.488;12.254;2024-02-23T17:09:05;99718.47;;;9.65;93.06
85984;BME280;76557;45.488;12.254;2024-02-23T17:13:04;99703.56;;;9.61;92.56
85984;BME280;76557;45.488;12.254;2024-02-23T17:17:01;99713.47;;;9.62;92.59
85984;BME280;76557;45.488;12.254;2024-02-23T17:20:56;99689.84;;;9.61;93.03
85984;BME280;76557;45.488;12.254;2024-02-23T17:24:52;99703.56;;;9.61;93.62
85984;BME280;76557;45.488;12.254;2024-02-23T17:28:47;99688.56;;;9.64;93.17
85984;BME280;76557;45.488;12.254;2024-02-23T17:32:42;99678.50;;;9.57;92.98
85984;BME280;76557;45.488;12.254;2024-02-23T17:36:38;99693.66;;;9.60;93.41
85984;BME280;76557;45.488;12.254;2024-02-23T17:40:37;99699.63;;;9.57;92.88
85984;BME280;76557;45.488;12.254;2024-02-23T17:44:33;99738.38;;;9.61;93.40
85984;BME280;76557;45.488;12.254;2024-02-23T17:48:28;99763.75;;;9.56;93.32
85984;BME280;76557;45.488;12.254;2024-02-23T17:52:23;99772.22;;;9.54;93.71
85984;BME280;76557;45.488;12.254;2024-02-23T17:56:19;99791.94;;;9.63;93.31
85984;BME280;76557;45.488;12.254;2024-02-23T18:00:14;99803.47;;;9.65;93.26
85984;BME280;76557;45.488;12.254;2024-02-23T18:04:10;99807.91;;;9.66;93.39
85984;BME280;76557;45.488;12.254;2024-02-23T18:08:07;99810.03;;;9.64;93.49
85984;BME280;76557;45.488;12.254;2024-02-23T18:12:03;99820.78;;;9.66;93.21
85984;BME280;76557;45.488;12.254;2024-02-23T18:16:01;99829.09;;;9.59;93.37
85984;BME280;76557;45.488;12.254;2024-02-23T18:19:58;99838.84;;;9.55;92.88
85984;BME280;76557;45.488;12.254;2024-02-23T18:23:54;99841.47;;;9.50;92.94
85984;BME280;76557;45.488;12.254;2024-02-23T18:27:49;99838.94;;;9.48;93.68
85984;BME280;76557;45.488;12.254;2024-02-23T18:31:45;99853.34;;;9.44;93.58
85984;BME280;76557;45.488;12.254;2024-02-23T18:35:41;99883.94;;;9.41;93.53
85984;BME280;76557;45.488;12.254;2024-02-23T18:39:37;99887.91;;;9.45;93.42
85984;BME280;76557;45.488;12.254;2024-02-23T18:43:33;99874.81;;;9.47;93.62
85984;BME280;76557;45.488;12.254;2024-02-23T18:47:30;99861.78;;;9.42;93.75
85984;BME280;76557;45.488;12.254;2024-02-23T18:51:26;99862.47;;;9.38;93.01
85984;BME280;76557;45.488;12.254;2024-02-23T18:55:24;99870.69;;;9.38;93.22
85984;BME280;76557;45.488;12.254;2024-02-23T18:59:20;99881.06;;;9.36;92.38
85984;BME280;76557;45.488;12.254;2024-02-23T19:03:15;99875.81;;;9.34;92.42
85984;BME280;76557;45.488;12.254;2024-02-23T19:07:11;99901.09;;;9.36;92.59
85984;BME280;76557;45.488;12.254;2024-02-23T19:11:06;99894.00;;;9.29;92.44
85984;BME280;76557;45.488;12.254;2024-02-23T19:15:02;99887.59;;;9.35;92.07
85984;BME280;76557;45.488;12.254;2024-02-23T19:19:00;99913.47;;;9.39;92.14
85984;BME280;76557;45.488;12.254;2024-02-23T19:22:57;99906.09;;;9.39;91.80
85984;BME280;76557;45.488;12.254;2024-02-23T19:26:54;99909.91;;;9.38;92.07
85984;BME280;76557;45.488;12.254;2024-02-23T19:30:50;99902.78;;;9.37;91.86
85984;BME280;76557;45.488;12.254;2024-02-23T19:34:45;99900.25;;;9.36;91.74
85984;BME280;76557;45.488;12.254;2024-02-23T19:38:41;99879.81;;;9.32;90.97
85984;BME280;76557;45.488;12.254;2024-02-23T19:42:38;99892.63;;;9.38;91.35
85984;BME280;76557;45.488;12.254;2024-02-23T19:46:34;99918.81;;;9.34;91.74
85984;BME280;76557;45.488;12.254;2024-02-23T19:50:29;99923.69;;;9.32;91.69
85984;BME280;76557;45.488;12.254;2024-02-23T19:54:26;99923.84;;;9.37;91.93
85984;BME280;76557;45.488;12.254;2024-02-23T19:58:21;99922.19;;;9.36;91.49
85984;BME280;76557;45.488;12.254;2024-02-23T20:02:17;99914.63;;;9.31;92.11
85984;BME280;76557;45.488;12.254;2024-02-23T20:06:12;99911.03;;;9.31;92.26
85984;BME280;76557;45.488;12.254;2024-02-23T20:10:08;99907.09;;;9.27;92.96
85984;BME280;76557;45.488;12.254;2024-02-23T20:14:04;99906.72;;;9.23;92.60
85984;BME280;76557;45.488;12.254;2024-02-23T20:18:00;99915.16;;;9.22;92.39
85984;BME280;76557;45.488;12.254;2024-02-23T20:21:58;99916.91;;;9.16;92.51
85984;BME280;76557;45.488;12.254;2024-02-23T20:25:54;99912.28;;;9.16;92.11
85984;BME280;76557;45.488;12.254;2024-02-23T20:29:49;99921.09;;;9.18;91.61
85984;BME280;76557;45.488;12.254;2024-02-23T20:33:45;99936.03;;;9.23;91.14